sensor_id;sensor_type;location;lat;lon;timestamp;temperature;humidity
65637;DHT22;52327;42.622;23.316;2023-05-14T00:00:59;14.57;55.15
65637;DHT22;52327;42.622;23.316;2023-05-14T00:03:24;14.56;54.79
65637;DHT22;52327;42.622;23.316;2023-05-14T00:05:50;14.54;54.84
65637;DHT22;52327;42.622;23.316;2023-05-14T00:08:16;14.56;55.25
65637;DHT22;52327;42.622;23.316;2023-05-14T00:10:41;14.61;55.39
65637;DHT22;52327;42.622;23.316;2023-05-14T00:13:07;14.56;55.52
65637;DHT22;52327;42.622;23.316;2023-05-14T00:15:32;14.59;55.21
65637;DHT22;52327;42.622;23.316;2023-05-14T00:17:57;14.57;56.06
65637;DHT22;52327;42.622;23.316;2023-05-14T00:20:23;14.65;54.96
65637;DHT22;52327;42.622;23.316;2023-05-14T00:22:48;14.60;55.78
65637;DHT22;52327;42.622;23.316;2023-05-14T00:25:14;14.56;56.15
65637;DHT22;52327;42.622;23.316;2023-05-14T00:27:39;14.56;55.30
65637;DHT22;52327;42.622;23.316;2023-05-14T00:30:05;14.48;55.54
65637;DHT22;52327;42.622;23.316;2023-05-14T00:32:33;14.44;55.39
65637;DHT22;52327;42.622;23.316;2023-05-14T00:34:59;14.48;54.61
65637;DHT22;52327;42.622;23.316;2023-05-14T00:37:25;14.41;55.53
65637;DHT22;52327;42.622;23.316;2023-05-14T00:39:50;14.43;56.08
65637;DHT22;52327;42.622;23.316;2023-05-14T00:42:15;14.43;56.04
65637;DHT22;52327;42.622;23.316;2023-05-14T00:44:41;14.36;56.28
65637;DHT22;52327;42.622;23.316;2023-05-14T00:47:07;14.20;55.64
65637;DHT22;52327;42.622;23.316;2023-05-14T00:49:33;14.14;55.96
65637;DHT22;52327;42.622;23.316;2023-05-14T00:51:58;14.20;56.09
65637;DHT22;52327;42.622;23.316;2023-05-14T00:54:25;14.17;56.61
65637;DHT22;52327;42.622;23.316;2023-05-14T00:56:51;14.20;56.49
65637;DHT22;52327;42.622;23.316;2023-05-14T00:59:16;14.14;57.43
65637;DHT22;52327;42.622;23.316;2023-05-14T01:01:42;14.13;56.90
65637;DHT22;52327;42.622;23.316;2023-05-14T01:04:08;14.16;56.84
65637;DHT22;52327;42.622;23.316;2023-05-14T01:06:50;14.16;57.01
65637;DHT22;52327;42.622;23.316;2023-05-14T01:09:39;14.19;57.21
65637;DHT22;52327;42.622;23.316;2023-05-14T01:12:20;14.10;57.60
65637;DHT22;52327;42.622;23.316;2023-05-14T01:17:16;14.03;56.82
65637;DHT22;52327;42.622;23.316;2023-05-14T01:19:45;13.95;57.22
65637;DHT22;52327;42.622;23.316;2023-05-14T01:22:11;13.93;56.60
65637;DHT22;52327;42.622;23.316;2023-05-14T01:24:37;13.95;57.73
65637;DHT22;52327;42.622;23.316;2023-05-14T01:29:49;14.09;56.05
65637;DHT22;52327;42.622;23.316;2023-05-14T01:32:17;13.96;56.05
65637;DHT22;52327;42.622;23.316;2023-05-14T01:34:46;13.90;56.29
65637;DHT22;52327;42.622;23.316;2023-05-14T01:37:13;13.89;57.42
65637;DHT22;52327;42.622;23.316;2023-05-14T01:39:40;14.00;56.56
65637;DHT22;52327;42.622;23.316;2023-05-14T01:42:06;14.02;56.43
65637;DHT22;52327;42.622;23.316;2023-05-14T01:44:32;13.99;56.36
65637;DHT22;52327;42.622;23.316;2023-05-14T01:46:57;13.83;56.87
65637;DHT22;52327;42.622;23.316;2023-05-14T01:49:23;13.78;56.63
65637;DHT22;52327;42.622;23.316;2023-05-14T01:51:48;13.83;55.92
65637;DHT22;52327;42.622;23.316;2023-05-14T01:54:14;13.70;57.37
65637;DHT22;52327;42.622;23.316;2023-05-14T01:56:39;13.76;56.77
65637;DHT22;52327;42.622;23.316;2023-05-14T01:59:05;13.76;57.13
65637;DHT22;52327;42.622;23.316;2023-05-14T02:01:30;13.76;57.11
65637;DHT22;52327;42.622;23.316;2023-05-14T02:03:55;13.75;58.02
65637;DHT22;52327;42.622;23.316;2023-05-14T02:06:21;13.61;58.67
65637;DHT22;52327;42.622;23.316;2023-05-14T02:08:46;13.54;59.75
65637;DHT22;52327;42.622;23.316;2023-05-14T02:11:12;13.61;59.93
65637;DHT22;52327;42.622;23.316;2023-05-14T02:13:37;13.48;61.05
65637;DHT22;52327;42.622;23.316;2023-05-14T02:16:03;13.47;61.14
65637;DHT22;52327;42.622;23.316;2023-05-14T02:18:28;13.54;60.96
65637;DHT22;52327;42.622;23.316;2023-05-14T02:20:53;13.42;61.53
65637;DHT22;52327;42.622;23.316;2023-05-14T02:23:19;13.38;60.72
65637;DHT22;52327;42.622;23.316;2023-05-14T02:25:44;13.31;61.07
65637;DHT22;52327;42.622;23.316;2023-05-14T02:28:10;13.25;60.76
65637;DHT22;52327;42.622;23.316;2023-05-14T02:30:35;13.31;60.60
65637;DHT22;52327;42.622;23.316;2023-05-14T02:33:01;13.24;60.32
65637;DHT22;52327;42.622;23.316;2023-05-14T02:35:26;13.06;61.11
65637;DHT22;52327;42.622;23.316;2023-05-14T02:37:51;12.94;61.72
65637;DHT22;52327;42.622;23.316;2023-05-14T02:40:17;12.94;61.97
65637;DHT22;52327;42.622;23.316;2023-05-14T02:42:42;12.93;61.82
65637;DHT22;52327;42.622;23.316;2023-05-14T02:45:09;13.08;61.33
65637;DHT22;52327;42.622;23.316;2023-05-14T02:47:34;13.07;61.43
65637;DHT22;52327;42.622;23.316;2023-05-14T02:50:00;13.12;61.98
65637;DHT22;52327;42.622;23.316;2023-05-14T02:52:25;13.17;61.59
65637;DHT22;52327;42.622;23.316;2023-05-14T02:54:51;13.11;62.65
65637;DHT22;52327;42.622;23.316;2023-05-14T02:57:17;13.12;61.63
65637;DHT22;52327;42.622;23.316;2023-05-14T02:59:42;13.17;61.91
65637;DHT22;52327;42.622;23.316;2023-05-14T03:02:08;13.15;62.22
65637;DHT22;52327;42.622;23.316;2023-05-14T03:04:33;13.17;62.60
65637;DHT22;52327;42.622;23.316;2023-05-14T03:06:58;13.21;61.97
65637;DHT22;52327;42.622;23.316;2023-05-14T03:09:24;13.28;61.78
65637;DHT22;52327;42.622;23.316;2023-05-14T03:11:49;13.24;63.13
65637;DHT22;52327;42.622;23.316;2023-05-14T03:14:15;13.22;63.68
65637;DHT22;52327;42.622;23.316;2023-05-14T03:16:40;13.29;63.50
65637;DHT22;52327;42.622;23.316;2023-05-14T03:19:06;13.24;64.57
65637;DHT22;52327;42.622;23.316;2023-05-14T03:21:32;13.19;65.56
65637;DHT22;52327;42.622;23.316;2023-05-14T03:23:57;13.17;65.75
65637;DHT22;52327;42.622;23.316;2023-05-14T03:26:23;13.04;68.46
65637;DHT22;52327;42.622;23.316;2023-05-14T03:28:49;12.98;68.95
65637;DHT22;52327;42.622;23.316;2023-05-14T03:31:14;12.96;69.96
65637;DHT22;52327;42.622;23.316;2023-05-14T03:33:40;12.91;71.25
65637;DHT22;52327;42.622;23.316;2023-05-14T03:36:05;12.90;70.78
65637;DHT22;52327;42.622;23.316;2023-05-14T03:38:31;12.97;70.32
65637;DHT22;52327;42.622;23.316;2023-05-14T03:40:56;13.06;68.55
65637;DHT22;52327;42.622;23.316;2023-05-14T03:43:22;13.18;67.61
65637;DHT22;52327;42.622;23.316;2023-05-14T03:45:47;13.10;69.40
65637;DHT22;52327;42.622;23.316;2023-05-14T03:48:19;13.03;70.06
65637;DHT22;52327;42.622;23.316;2023-05-14T03:50:45;13.03;70.21
65637;DHT22;52327;42.622;23.316;2023-05-14T03:53:10;13.03;70.55
65637;DHT22;52327;42.622;23.316;2023-05-14T03:55:35;13.10;68.99
65637;DHT22;52327;42.622;23.316;2023-05-14T03:58:01;13.11;67.61
65637;DHT22;52327;42.622;23.316;2023-05-14T04:00:27;13.17;66.09
65637;DHT22;52327;42.622;23.316;2023-05-14T04:02:53;13.19;65.88
65637;DHT22;52327;42.622;23.316;2023-05-14T04:05:18;13.25;65.76
65637;DHT22;52327;42.622;23.316;2023-05-14T04:07:44;13.34;64.29
65637;DHT22;52327;42.622;23.316;2023-05-14T04:10:12;13.27;65.44
65637;DHT22;52327;42.622;23.316;2023-05-14T04:12:37;13.29;64.38
65637;DHT22;52327;42.622;23.316;2023-05-14T04:15:03;13.31;65.14
65637;DHT22;52327;42.622;23.316;2023-05-14T04:17:29;13.35;65.25
65637;DHT22;52327;42.622;23.316;2023-05-14T04:19:54;13.27;66.25
65637;DHT22;52327;42.622;23.316;2023-05-14T04:22:20;13.25;66.16
65637;DHT22;52327;42.622;23.316;2023-05-14T04:24:45;13.17;66.52
65637;DHT22;52327;42.622;23.316;2023-05-14T04:27:13;13.08;66.82
65637;DHT22;52327;42.622;23.316;2023-05-14T04:29:43;13.00;68.37
65637;DHT22;52327;42.622;23.316;2023-05-14T04:32:09;12.96;67.71
65637;DHT22;52327;42.622;23.316;2023-05-14T04:34:34;12.72;71.25
65637;DHT22;52327;42.622;23.316;2023-05-14T04:37:00;12.64;71.31
65637;DHT22;52327;42.622;23.316;2023-05-14T04:39:27;12.55;71.89
65637;DHT22;52327;42.622;23.316;2023-05-14T04:41:53;12.37;74.19
65637;DHT22;52327;42.622;23.316;2023-05-14T04:44:18;12.25;76.09
65637;DHT22;52327;42.622;23.316;2023-05-14T04:46:43;12.25;77.26
65637;DHT22;52327;42.622;23.316;2023-05-14T04:49:09;12.08;76.91
65637;DHT22;52327;42.622;23.316;2023-05-14T04:51:34;11.68;82.17
65637;DHT22;52327;42.622;23.316;2023-05-14T04:54:00;11.55;84.43
65637;DHT22;52327;42.622;23.316;2023-05-14T04:56:25;11.63;84.69
65637;DHT22;52327;42.622;23.316;2023-05-14T04:58:51;11.65;85.13
65637;DHT22;52327;42.622;23.316;2023-05-14T05:01:16;11.71;83.00
65637;DHT22;52327;42.622;23.316;2023-05-14T05:03:41;11.61;85.40
65637;DHT22;52327;42.622;23.316;2023-05-14T05:06:07;11.43;85.43
65637;DHT22;52327;42.622;23.316;2023-05-14T05:08:32;11.04;87.13
65637;DHT22;52327;42.622;23.316;2023-05-14T05:10:58;10.96;87.80
65637;DHT22;52327;42.622;23.316;2023-05-14T05:13:23;11.10;88.20
65637;DHT22;52327;42.622;23.316;2023-05-14T05:15:48;11.09;88.63
65637;DHT22;52327;42.622;23.316;2023-05-14T05:18:14;11.09;88.65
65637;DHT22;52327;42.622;23.316;2023-05-14T05:20:39;11.03;89.15
65637;DHT22;52327;42.622;23.316;2023-05-14T05:23:05;11.00;89.28
65637;DHT22;52327;42.622;23.316;2023-05-14T05:25:30;11.06;89.39
65637;DHT22;52327;42.622;23.316;2023-05-14T05:27:56;11.06;89.64
65637;DHT22;52327;42.622;23.316;2023-05-14T05:30:21;11.00;89.64
65637;DHT22;52327;42.622;23.316;2023-05-14T05:32:46;10.85;88.96
65637;DHT22;52327;42.622;23.316;2023-05-14T05:35:12;10.77;89.50
65637;DHT22;52327;42.622;23.316;2023-05-14T05:37:37;10.73;89.66
65637;DHT22;52327;42.622;23.316;2023-05-14T05:40:03;10.69;90.45
65637;DHT22;52327;42.622;23.316;2023-05-14T05:42:30;10.59;90.79
65637;DHT22;52327;42.622;23.316;2023-05-14T05:44:55;10.40;90.71
65637;DHT22;52327;42.622;23.316;2023-05-14T05:47:20;10.53;91.25
65637;DHT22;52327;42.622;23.316;2023-05-14T05:49:46;10.76;91.56
65637;DHT22;52327;42.622;23.316;2023-05-14T05:52:11;10.97;91.33
65637;DHT22;52327;42.622;23.316;2023-05-14T05:54:37;11.12;91.00
65637;DHT22;52327;42.622;23.316;2023-05-14T05:57:04;11.22;90.71
65637;DHT22;52327;42.622;23.316;2023-05-14T05:59:29;11.30;90.65
65637;DHT22;52327;42.622;23.316;2023-05-14T06:01:56;11.36;90.53
65637;DHT22;52327;42.622;23.316;2023-05-14T06:04:21;11.40;90.45
65637;DHT22;52327;42.622;23.316;2023-05-14T06:06:46;11.45;90.36
65637;DHT22;52327;42.622;23.316;2023-05-14T06:09:12;11.43;89.97
65637;DHT22;52327;42.622;23.316;2023-05-14T06:11:37;11.34;90.00
65637;DHT22;52327;42.622;23.316;2023-05-14T06:14:03;11.28;90.03
65637;DHT22;52327;42.622;23.316;2023-05-14T06:16:29;11.17;90.01
65637;DHT22;52327;42.622;23.316;2023-05-14T06:18:54;11.09;89.95
65637;DHT22;52327;42.622;23.316;2023-05-14T06:21:20;11.04;89.80
65637;DHT22;52327;42.622;23.316;2023-05-14T06:23:45;10.96;90.06
65637;DHT22;52327;42.622;23.316;2023-05-14T06:26:11;10.92;90.28
65637;DHT22;52327;42.622;23.316;2023-05-14T06:28:36;10.68;90.43
65637;DHT22;52327;42.622;23.316;2023-05-14T06:31:02;10.51;90.60
65637;DHT22;52327;42.622;23.316;2023-05-14T06:33:27;10.28;91.31
65637;DHT22;52327;42.622;23.316;2023-05-14T06:35:57;10.24;91.20
65637;DHT22;52327;42.622;23.316;2023-05-14T06:38:23;10.31;90.94
65637;DHT22;52327;42.622;23.316;2023-05-14T06:40:49;10.45;91.14
65637;DHT22;52327;42.622;23.316;2023-05-14T06:43:14;10.63;91.18
65637;DHT22;52327;42.622;23.316;2023-05-14T06:45:39;10.79;91.05
65637;DHT22;52327;42.622;23.316;2023-05-14T06:48:05;10.91;90.88
65637;DHT22;52327;42.622;23.316;2023-05-14T06:50:30;11.02;90.81
65637;DHT22;52327;42.622;23.316;2023-05-14T06:52:56;11.06;90.53
65637;DHT22;52327;42.622;23.316;2023-05-14T06:55:21;11.20;90.73
65637;DHT22;52327;42.622;23.316;2023-05-14T06:57:47;11.27;90.34
65637;DHT22;52327;42.622;23.316;2023-05-14T07:00:13;11.31;90.11
65637;DHT22;52327;42.622;23.316;2023-05-14T07:02:38;11.30;89.39
65637;DHT22;52327;42.622;23.316;2023-05-14T07:05:04;11.33;89.72
65637;DHT22;52327;42.622;23.316;2023-05-14T07:07:30;11.40;89.59
65637;DHT22;52327;42.622;23.316;2023-05-14T07:09:55;11.44;89.47
65637;DHT22;52327;42.622;23.316;2023-05-14T07:12:20;11.53;89.64
65637;DHT22;52327;42.622;23.316;2023-05-14T07:14:47;11.57;89.41
65637;DHT22;52327;42.622;23.316;2023-05-14T07:17:13;11.55;89.39
65637;DHT22;52327;42.622;23.316;2023-05-14T07:19:39;11.44;89.38
65637;DHT22;52327;42.622;23.316;2023-05-14T07:22:05;11.17;89.05
65637;DHT22;52327;42.622;23.316;2023-05-14T07:24:30;10.80;89.18
65637;DHT22;52327;42.622;23.316;2023-05-14T07:26:55;10.71;90.07
65637;DHT22;52327;42.622;23.316;2023-05-14T07:29:21;10.68;90.24
65637;DHT22;52327;42.622;23.316;2023-05-14T07:31:47;10.52;90.17
65637;DHT22;52327;42.622;23.316;2023-05-14T07:34:12;10.42;90.78
65637;DHT22;52327;42.622;23.316;2023-05-14T07:36:38;10.49;91.07
65637;DHT22;52327;42.622;23.316;2023-05-14T07:39:03;10.65;90.97
65637;DHT22;52327;42.622;23.316;2023-05-14T07:41:29;10.65;91.05
65637;DHT22;52327;42.622;23.316;2023-05-14T07:43:54;10.80;90.75
65637;DHT22;52327;42.622;23.316;2023-05-14T07:46:20;10.59;90.42
65637;DHT22;52327;42.622;23.316;2023-05-14T07:48:45;10.51;90.76
65637;DHT22;52327;42.622;23.316;2023-05-14T07:51:11;10.63;90.93
65637;DHT22;52327;42.622;23.316;2023-05-14T07:53:36;10.76;91.25
65637;DHT22;52327;42.622;23.316;2023-05-14T07:56:02;10.92;90.83
65637;DHT22;52327;42.622;23.316;2023-05-14T07:58:27;11.00;90.60
65637;DHT22;52327;42.622;23.316;2023-05-14T08:00:53;11.03;90.48
65637;DHT22;52327;42.622;23.316;2023-05-14T08:03:18;11.12;90.57
65637;DHT22;52327;42.622;23.316;2023-05-14T08:05:44;11.26;90.34
65637;DHT22;52327;42.622;23.316;2023-05-14T08:08:10;11.40;90.28
65637;DHT22;52327;42.622;23.316;2023-05-14T08:10:36;11.51;89.80
65637;DHT22;52327;42.622;23.316;2023-05-14T08:13:02;11.09;89.11
65637;DHT22;52327;42.622;23.316;2023-05-14T08:15:27;10.75;90.06
65637;DHT22;52327;42.622;23.316;2023-05-14T08:17:52;10.59;90.28
65637;DHT22;52327;42.622;23.316;2023-05-14T08:20:18;10.62;90.45
65637;DHT22;52327;42.622;23.316;2023-05-14T08:22:43;10.86;90.96
65637;DHT22;52327;42.622;23.316;2023-05-14T08:25:09;11.07;91.00
65637;DHT22;52327;42.622;23.316;2023-05-14T08:27:34;11.23;90.38
65637;DHT22;52327;42.622;23.316;2023-05-14T08:30:00;11.31;90.30
65637;DHT22;52327;42.622;23.316;2023-05-14T08:32:25;11.40;90.07
65637;DHT22;52327;42.622;23.316;2023-05-14T08:34:51;11.54;90.29
65637;DHT22;52327;42.622;23.316;2023-05-14T08:37:16;11.70;90.37
65637;DHT22;52327;42.622;23.316;2023-05-14T08:39:42;11.73;89.77
65637;DHT22;52327;42.622;23.316;2023-05-14T08:42:11;11.85;89.01
65637;DHT22;52327;42.622;23.316;2023-05-14T08:45:03;11.84;89.60
65637;DHT22;52327;42.622;23.316;2023-05-14T08:47:30;11.94;89.60
65637;DHT22;52327;42.622;23.316;2023-05-14T08:50:04;11.95;89.24
65637;DHT22;52327;42.622;23.316;2023-05-14T08:52:31;11.88;89.62
65637;DHT22;52327;42.622;23.316;2023-05-14T08:55:02;11.89;89.68
65637;DHT22;52327;42.622;23.316;2023-05-14T08:57:29;11.89;89.96
65637;DHT22;52327;42.622;23.316;2023-05-14T08:59:56;11.81;89.30
65637;DHT22;52327;42.622;23.316;2023-05-14T09:02:29;11.70;89.64
65637;DHT22;52327;42.622;23.316;2023-05-14T09:04:56;11.65;89.39
65637;DHT22;52327;42.622;23.316;2023-05-14T09:07:23;11.65;89.75
65637;DHT22;52327;42.622;23.316;2023-05-14T09:09:50;11.74;90.09
65637;DHT22;52327;42.622;23.316;2023-05-14T09:12:15;11.75;90.11
65637;DHT22;52327;42.622;23.316;2023-05-14T09:14:41;11.86;89.97
65637;DHT22;52327;42.622;23.316;2023-05-14T09:17:07;11.92;89.35
65637;DHT22;52327;42.622;23.316;2023-05-14T09:19:33;11.88;89.77
65637;DHT22;52327;42.622;23.316;2023-05-14T09:21:58;11.89;89.68
65637;DHT22;52327;42.622;23.316;2023-05-14T09:24:25;11.96;89.83
65637;DHT22;52327;42.622;23.316;2023-05-14T09:26:55;12.02;88.68
65637;DHT22;52327;42.622;23.316;2023-05-14T09:29:23;12.06;89.14
65637;DHT22;52327;42.622;23.316;2023-05-14T09:31:50;12.05;89.36
65637;DHT22;52327;42.622;23.316;2023-05-14T09:34:26;12.06;89.39
65637;DHT22;52327;42.622;23.316;2023-05-14T09:37:02;12.01;89.65
65637;DHT22;52327;42.622;23.316;2023-05-14T09:39:28;12.06;89.50
65637;DHT22;52327;42.622;23.316;2023-05-14T09:41:54;12.06;89.58
65637;DHT22;52327;42.622;23.316;2023-05-14T09:44:20;12.11;89.13
65637;DHT22;52327;42.622;23.316;2023-05-14T09:46:46;12.04;89.21
65637;DHT22;52327;42.622;23.316;2023-05-14T09:49:15;12.08;89.23
65637;DHT22;52327;42.622;23.316;2023-05-14T09:51:40;12.05;89.07
65637;DHT22;52327;42.622;23.316;2023-05-14T09:54:07;12.05;88.97
65637;DHT22;52327;42.622;23.316;2023-05-14T09:56:33;12.02;89.51
65637;DHT22;52327;42.622;23.316;2023-05-14T09:58:59;12.04;89.72
65637;DHT22;52327;42.622;23.316;2023-05-14T10:01:25;12.04;89.86
65637;DHT22;52327;42.622;23.316;2023-05-14T10:03:54;12.04;89.92
65637;DHT22;52327;42.622;23.316;2023-05-14T10:06:23;12.08;89.68
65637;DHT22;52327;42.622;23.316;2023-05-14T10:08:53;12.01;89.49
65637;DHT22;52327;42.622;23.316;2023-05-14T10:11:23;11.95;89.42
65637;DHT22;52327;42.622;23.316;2023-05-14T10:14:19;11.91;89.81
65637;DHT22;52327;42.622;23.316;2023-05-14T10:16:52;11.95;89.83
65637;DHT22;52327;42.622;23.316;2023-05-14T10:19:20;11.99;89.62
65637;DHT22;52327;42.622;23.316;2023-05-14T10:21:52;11.95;89.66
65637;DHT22;52327;42.622;23.316;2023-05-14T10:24:18;11.92;89.80
65637;DHT22;52327;42.622;23.316;2023-05-14T10:26:44;11.95;89.90
65637;DHT22;52327;42.622;23.316;2023-05-14T10:29:11;11.91;89.68
65637;DHT22;52327;42.622;23.316;2023-05-14T10:31:47;11.82;89.60
65637;DHT22;52327;42.622;23.316;2023-05-14T10:34:33;11.79;89.74
65637;DHT22;52327;42.622;23.316;2023-05-14T10:37:02;11.78;89.81
65637;DHT22;52327;42.622;23.316;2023-05-14T10:39:46;11.65;89.46
65637;DHT22;52327;42.622;23.316;2023-05-14T10:42:17;11.50;89.74
65637;DHT22;52327;42.622;23.316;2023-05-14T10:47:28;11.74;90.09
65637;DHT22;52327;42.622;23.316;2023-05-14T10:50:01;11.94;89.96
65637;DHT22;52327;42.622;23.316;2023-05-14T10:52:28;12.04;89.64
65637;DHT22;52327;42.622;23.316;2023-05-14T10:55:02;11.95;89.35
65637;DHT22;52327;42.622;23.316;2023-05-14T10:57:29;12.04;89.35
65637;DHT22;52327;42.622;23.316;2023-05-14T10:59:57;11.94;88.44
65637;DHT22;52327;42.622;23.316;2023-05-14T11:02:31;11.86;88.40
65637;DHT22;52327;42.622;23.316;2023-05-14T11:05:08;11.78;89.65
65637;DHT22;52327;42.622;23.316;2023-05-14T11:07:35;11.88;89.92
65637;DHT22;52327;42.622;23.316;2023-05-14T11:12:32;11.71;89.53
65637;DHT22;52327;42.622;23.316;2023-05-14T11:15:00;11.38;89.82
65637;DHT22;52327;42.622;23.316;2023-05-14T11:17:27;11.10;90.60
65637;DHT22;52327;42.622;23.316;2023-05-14T11:19:54;11.06;90.72
65637;DHT22;52327;42.622;23.316;2023-05-14T11:22:19;11.20;91.11
65637;DHT22;52327;42.622;23.316;2023-05-14T11:24:45;11.22;90.88
65637;DHT22;52327;42.622;23.316;2023-05-14T11:27:11;11.33;90.94
65637;DHT22;52327;42.622;23.316;2023-05-14T11:29:37;11.09;90.79
65637;DHT22;52327;42.622;23.316;2023-05-14T11:32:05;11.03;91.37
65637;DHT22;52327;42.622;23.316;2023-05-14T11:34:32;11.14;91.60
65637;DHT22;52327;42.622;23.316;2023-05-14T11:37:01;11.17;91.32
65637;DHT22;52327;42.622;23.316;2023-05-14T11:39:27;11.33;91.05
65637;DHT22;52327;42.622;23.316;2023-05-14T11:41:52;11.26;90.78
65637;DHT22;52327;42.622;23.316;2023-05-14T11:44:18;11.47;91.13
65637;DHT22;52327;42.622;23.316;2023-05-14T11:46:55;11.78;90.54
65637;DHT22;52327;42.622;23.316;2023-05-14T11:49:24;11.92;90.32
65637;DHT22;52327;42.622;23.316;2023-05-14T11:51:56;12.09;90.15
65637;DHT22;52327;42.622;23.316;2023-05-14T11:54:24;12.35;90.28
65637;DHT22;52327;42.622;23.316;2023-05-14T11:56:51;12.45;89.68
65637;DHT22;52327;42.622;23.316;2023-05-14T11:59:17;12.57;88.92
65637;DHT22;52327;42.622;23.316;2023-05-14T12:01:44;12.57;89.16
65637;DHT22;52327;42.622;23.316;2023-05-14T12:04:12;12.52;89.14
65637;DHT22;52327;42.622;23.316;2023-05-14T12:06:38;12.50;89.46
65637;DHT22;52327;42.622;23.316;2023-05-14T12:09:05;12.47;89.31
65637;DHT22;52327;42.622;23.316;2023-05-14T12:11:31;12.53;89.93
65637;DHT22;52327;42.622;23.316;2023-05-14T12:13:58;12.72;89.72
65637;DHT22;52327;42.622;23.316;2023-05-14T12:16:29;12.96;89.38
65637;DHT22;52327;42.622;23.316;2023-05-14T12:18:58;13.25;88.35
65637;DHT22;52327;42.622;23.316;2023-05-14T12:21:26;13.19;88.81
65637;DHT22;52327;42.622;23.316;2023-05-14T12:23:57;13.25;88.58
65637;DHT22;52327;42.622;23.316;2023-05-14T12:26:24;13.28;87.78
65637;DHT22;52327;42.622;23.316;2023-05-14T12:28:57;13.34;87.72
65637;DHT22;52327;42.622;23.316;2023-05-14T12:31:27;13.35;87.59
65637;DHT22;52327;42.622;23.316;2023-05-14T12:33:53;13.18;88.09
65637;DHT22;52327;42.622;23.316;2023-05-14T12:36:19;12.94;88.25
65637;DHT22;52327;42.622;23.316;2023-05-14T12:38:44;12.79;88.43
65637;DHT22;52327;42.622;23.316;2023-05-14T12:41:10;12.79;89.05
65637;DHT22;52327;42.622;23.316;2023-05-14T12:43:35;12.83;89.03
65637;DHT22;52327;42.622;23.316;2023-05-14T12:46:01;12.93;88.41
65637;DHT22;52327;42.622;23.316;2023-05-14T12:48:26;12.91;87.98
65637;DHT22;52327;42.622;23.316;2023-05-14T12:50:52;12.97;88.44
65637;DHT22;52327;42.622;23.316;2023-05-14T12:53:17;12.98;87.81
65637;DHT22;52327;42.622;23.316;2023-05-14T12:55:42;13.00;88.54
65637;DHT22;52327;42.622;23.316;2023-05-14T12:58:08;13.03;88.96
65637;DHT22;52327;42.622;23.316;2023-05-14T13:00:34;13.15;88.35
65637;DHT22;52327;42.622;23.316;2023-05-14T13:02:59;13.11;88.75
65637;DHT22;52327;42.622;23.316;2023-05-14T13:05:25;13.17;87.12
65637;DHT22;52327;42.622;23.316;2023-05-14T13:07:51;13.10;88.04
65637;DHT22;52327;42.622;23.316;2023-05-14T13:10:17;12.98;88.07
65637;DHT22;52327;42.622;23.316;2023-05-14T13:12:43;12.87;88.08
65637;DHT22;52327;42.622;23.316;2023-05-14T13:15:08;12.86;88.01
65637;DHT22;52327;42.622;23.316;2023-05-14T13:17:35;12.86;88.87
65637;DHT22;52327;42.622;23.316;2023-05-14T13:20:00;12.88;88.72
65637;DHT22;52327;42.622;23.316;2023-05-14T13:22:26;13.00;88.90
65637;DHT22;52327;42.622;23.316;2023-05-14T13:24:51;13.08;89.03
65637;DHT22;52327;42.622;23.316;2023-05-14T13:27:16;13.19;87.79
65637;DHT22;52327;42.622;23.316;2023-05-14T13:29:42;13.31;86.12
65637;DHT22;52327;42.622;23.316;2023-05-14T13:32:07;13.19;88.05
65637;DHT22;52327;42.622;23.316;2023-05-14T13:34:33;13.25;87.64
65637;DHT22;52327;42.622;23.316;2023-05-14T13:36:58;13.31;87.63
65637;DHT22;52327;42.622;23.316;2023-05-14T13:39:25;13.28;88.07
65637;DHT22;52327;42.622;23.316;2023-05-14T13:41:52;13.35;87.90
65637;DHT22;52327;42.622;23.316;2023-05-14T13:44:20;13.38;88.08
65637;DHT22;52327;42.622;23.316;2023-05-14T13:46:45;13.42;87.64
65637;DHT22;52327;42.622;23.316;2023-05-14T13:49:10;13.48;86.58
65637;DHT22;52327;42.622;23.316;2023-05-14T13:51:36;13.37;86.70
65637;DHT22;52327;42.622;23.316;2023-05-14T13:54:01;13.24;87.29
65637;DHT22;52327;42.622;23.316;2023-05-14T13:56:27;13.10;87.41
65637;DHT22;52327;42.622;23.316;2023-05-14T13:58:52;13.03;87.46
65637;DHT22;52327;42.622;23.316;2023-05-14T14:01:18;12.94;87.84
65637;DHT22;52327;42.622;23.316;2023-05-14T14:03:44;12.86;87.33
65637;DHT22;52327;42.622;23.316;2023-05-14T14:06:10;12.61;88.00
65637;DHT22;52327;42.622;23.316;2023-05-14T14:08:36;12.47;88.25
65637;DHT22;52327;42.622;23.316;2023-05-14T14:11:01;12.49;88.68
65637;DHT22;52327;42.622;23.316;2023-05-14T14:13:26;12.45;88.37
65637;DHT22;52327;42.622;23.316;2023-05-14T14:15:53;12.52;88.74
65637;DHT22;52327;42.622;23.316;2023-05-14T14:18:19;12.53;88.59
65637;DHT22;52327;42.622;23.316;2023-05-14T14:20:44;12.55;88.03
65637;DHT22;52327;42.622;23.316;2023-05-14T14:23:09;12.59;88.13
65637;DHT22;52327;42.622;23.316;2023-05-14T14:25:35;12.56;88.33
65637;DHT22;52327;42.622;23.316;2023-05-14T14:28:00;12.57;88.19
65637;DHT22;52327;42.622;23.316;2023-05-14T14:30:25;12.60;87.87
65637;DHT22;52327;42.622;23.316;2023-05-14T14:32:51;12.49;88.33
65637;DHT22;52327;42.622;23.316;2023-05-14T14:35:17;12.43;87.79
65637;DHT22;52327;42.622;23.316;2023-05-14T14:37:43;12.33;88.26
65637;DHT22;52327;42.622;23.316;2023-05-14T14:40:13;12.25;87.50
65637;DHT22;52327;42.622;23.316;2023-05-14T14:42:39;12.21;88.40
65637;DHT22;52327;42.622;23.316;2023-05-14T14:45:05;12.09;88.53
65637;DHT22;52327;42.622;23.316;2023-05-14T14:47:31;12.11;88.65
65637;DHT22;52327;42.622;23.316;2023-05-14T14:49:56;12.06;88.07
65637;DHT22;52327;42.622;23.316;2023-05-14T14:52:23;11.96;88.84
65637;DHT22;52327;42.622;23.316;2023-05-14T14:54:49;11.88;89.23
65637;DHT22;52327;42.622;23.316;2023-05-14T14:57:15;11.94;89.06
65637;DHT22;52327;42.622;23.316;2023-05-14T14:59:40;11.85;88.79
65637;DHT22;52327;42.622;23.316;2023-05-14T15:02:07;11.81;88.68
65637;DHT22;52327;42.622;23.316;2023-05-14T15:04:33;11.71;89.27
65637;DHT22;52327;42.622;23.316;2023-05-14T15:06:59;11.71;88.93
65637;DHT22;52327;42.622;23.316;2023-05-14T15:09:25;11.67;89.55
65637;DHT22;52327;42.622;23.316;2023-05-14T15:11:50;11.67;89.93
65637;DHT22;52327;42.622;23.316;2023-05-14T15:14:16;11.68;90.33
65637;DHT22;52327;42.622;23.316;2023-05-14T15:16:41;11.68;89.97
65637;DHT22;52327;42.622;23.316;2023-05-14T15:19:07;11.55;89.38
65637;DHT22;52327;42.622;23.316;2023-05-14T15:21:32;11.50;89.45